createdAt,value
2022-08-05T00:00:46.326Z,22.43
2022-08-05T00:01:54.868Z,22.38
2022-08-05T00:03:09.048Z,22.38
2022-08-05T00:04:18.316Z,22.37
2022-08-05T00:05:27.085Z,22.37
2022-08-05T00:06:43.257Z,22.37
2022-08-05T00:07:59.837Z,22.38
2022-08-05T00:09:05.177Z,22.38
2022-08-05T00:10:14.927Z,22.39
2022-08-05T00:11:20.498Z,22.39
2022-08-05T00:12:32.012Z,22.37
2022-08-05T00:13:38.998Z,22.38
2022-08-05T00:14:43.929Z,22.38
2022-08-05T00:15:55.110Z,22.37
2022-08-05T00:16:59.061Z,22.38
2022-08-05T00:18:04.329Z,22.39
2022-08-05T00:19:07.413Z,22.38
2022-08-05T00:20:09.896Z,22.38
2022-08-05T00:21:14.417Z,22.38
2022-08-05T00:22:16.280Z,22.37
2022-08-05T00:23:44.510Z,22.39
2022-08-05T00:24:43.239Z,22.38
2022-08-05T00:25:45.912Z,22.35
2022-08-05T00:26:51.796Z,22.33
2022-08-05T00:27:53.853Z,22.31
2022-08-05T00:28:57.935Z,22.30
2022-08-05T00:30:03.234Z,22.28
2022-08-05T00:31:07.684Z,22.28
2022-08-05T00:32:15.523Z,22.26
2022-08-05T00:34:54.291Z,22.18
2022-08-05T00:34:56.731Z,22.23
2022-08-05T00:36:16.199Z,22.15
2022-08-05T00:37:25.985Z,22.12
2022-08-05T00:38:28.689Z,22.12
2022-08-05T00:39:36.968Z,22.14
2022-08-05T00:40:53.180Z,22.13
2022-08-05T00:41:56.039Z,22.11
2022-08-05T00:42:59.635Z,22.10
2022-08-05T00:44:02.945Z,22.10
2022-08-05T00:45:11.452Z,22.09
2022-08-05T00:46:14.612Z,22.05
2022-08-05T00:47:17.572Z,22.03
2022-08-05T00:48:31.240Z,22.01
2022-08-05T00:49:44.351Z,22.00
2022-08-05T00:50:53.918Z,21.96
2022-08-05T00:51:55.543Z,21.96
2022-08-05T00:52:58.262Z,21.95
2022-08-05T00:54:03.079Z,21.96
2022-08-05T00:55:06.668Z,21.97
2022-08-05T00:56:08.692Z,21.96
2022-08-05T00:57:11.301Z,21.95
2022-08-05T00:58:16.755Z,21.94
2022-08-05T00:59:21.802Z,21.94
2022-08-05T01:00:25.939Z,21.93
2022-08-05T01:01:42.729Z,21.93
2022-08-05T01:02:50.279Z,21.93
2022-08-05T01:03:53.133Z,21.94
2022-08-05T01:04:55.258Z,21.96
2022-08-05T01:05:58.185Z,21.98
2022-08-05T01:07:00.353Z,21.97
2022-08-05T01:08:30.251Z,21.97
2022-08-05T01:09:30.591Z,21.97
2022-08-05T01:10:38.574Z,21.97
2022-08-05T01:11:42.378Z,21.97
2022-08-05T01:13:03.211Z,21.97
2022-08-05T01:14:15.807Z,22.01
2022-08-05T01:15:35.792Z,22.03
2022-08-05T01:16:48.282Z,22.05
2022-08-05T01:17:53.806Z,22.06
2022-08-05T01:19:01.639Z,22.06
2022-08-05T01:20:12.080Z,22.07
2022-08-05T01:21:38.049Z,22.08
2022-08-05T01:22:59.616Z,22.10
2022-08-05T01:24:35.684Z,22.11
2022-08-05T01:26:04.378Z,22.12
2022-08-05T01:27:17.644Z,22.10
2022-08-05T01:28:30.522Z,22.10
2022-08-05T01:29:37.723Z,22.09
2022-08-05T01:30:53.745Z,22.09
2022-08-05T01:32:03.179Z,22.07
2022-08-05T01:33:09.185Z,22.08
2022-08-05T01:34:16.305Z,22.09
2022-08-05T01:35:50.607Z,22.11
2022-08-05T01:36:51.724Z,22.11
2022-08-05T01:37:56.519Z,22.11
2022-08-05T01:39:03.133Z,22.12
2022-08-05T01:40:07.180Z,22.13
2022-08-05T01:41:10.401Z,22.13
2022-08-05T01:42:15.312Z,22.14
2022-08-05T01:43:22.068Z,22.15
2022-08-05T01:44:31.279Z,22.17
2022-08-05T01:45:43.224Z,22.18
2022-08-05T01:46:46.358Z,22.19
2022-08-05T01:47:54.591Z,22.20
2022-08-05T01:48:58.897Z,22.23
2022-08-05T01:50:03.758Z,22.24
2022-08-05T01:51:12.502Z,22.25
2022-08-05T01:52:17.866Z,22.26
2022-08-05T01:53:54.868Z,22.26
2022-08-05T01:54:53.566Z,22.28
2022-08-05T01:56:04.440Z,22.29
2022-08-05T01:58:10.382Z,22.30
2022-08-05T01:58:40.909Z,22.28
2022-08-05T01:59:52.498Z,22.29
2022-08-05T02:00:56.986Z,22.28
2022-08-05T02:02:02.487Z,22.29
2022-08-05T02:03:31.334Z,22.29
2022-08-05T02:04:37.567Z,22.28
2022-08-05T02:05:44.690Z,22.26
2022-08-05T02:06:51.585Z,22.27
2022-08-05T02:08:00.313Z,22.26
2022-08-05T02:09:07.039Z,22.27
2022-08-05T02:10:09.800Z,22.26
2022-08-05T02:11:23.713Z,22.24
2022-08-05T02:12:32.966Z,22.22
2022-08-05T02:13:53.538Z,22.21
2022-08-05T02:15:03.466Z,22.19
2022-08-05T02:16:16.475Z,22.16
2022-08-05T02:18:28.478Z,22.13
2022-08-05T02:18:53.591Z,22.08
2022-08-05T02:20:00.654Z,22.03
2022-08-05T02:21:14.869Z,21.98
2022-08-05T02:22:26.545Z,21.84
2022-08-05T02:23:33.691Z,21.67
2022-08-05T02:24:39.989Z,21.52
2022-08-05T02:25:49.529Z,21.37
2022-08-05T02:27:00.115Z,21.30
2022-08-05T02:28:14.579Z,21.24
2022-08-05T02:29:24.270Z,21.16
2022-08-05T02:30:35.097Z,21.11
2022-08-05T02:31:38.231Z,21.06
2022-08-05T02:32:41.280Z,21.03
2022-08-05T02:33:57.207Z,21.02
2022-08-05T02:35:13.375Z,21.01
2022-08-05T02:36:19.109Z,21.02
2022-08-05T02:37:23.289Z,21.01
2022-08-05T02:38:28.691Z,21.04
2022-08-05T02:39:41.306Z,21.06
2022-08-05T02:40:45.029Z,21.05
2022-08-05T02:42:00.831Z,21.05
2022-08-05T02:43:07.289Z,21.03
2022-08-05T02:44:13.061Z,21.03
2022-08-05T02:45:16.388Z,21.03
2022-08-05T02:46:27.376Z,21.00
2022-08-05T02:48:06.792Z,20.99
2022-08-05T02:48:55.947Z,21.04
2022-08-05T02:49:59.269Z,21.08
2022-08-05T02:51:04.230Z,21.13
2022-08-05T02:52:09.703Z,21.15
2022-08-05T02:53:18.976Z,21.18
2022-08-05T02:54:35.651Z,21.21
2022-08-05T02:55:52.114Z,21.22
2022-08-05T02:56:57.363Z,21.25
2022-08-05T02:58:11.718Z,21.28
2022-08-05T02:59:27.121Z,21.33
2022-08-05T03:00:30.230Z,21.33
2022-08-05T03:01:35.898Z,21.33
2022-08-05T03:02:39.986Z,21.30
2022-08-05T03:04:02.535Z,21.27
2022-08-05T03:05:10.256Z,21.26
2022-08-05T03:06:54.785Z,21.24
2022-08-05T03:07:48.421Z,21.24
2022-08-05T03:08:58.682Z,21.22
2022-08-05T03:10:03.159Z,21.20
2022-08-05T03:11:56.985Z,21.18
2022-08-05T03:12:41.163Z,21.19
2022-08-05T03:13:51.798Z,21.19
2022-08-05T03:15:07.445Z,21.18
2022-08-05T03:16:10.985Z,21.17
2022-08-05T03:17:20.240Z,21.15
2022-08-05T03:18:29.798Z,21.14
2022-08-05T03:19:34.044Z,21.14
2022-08-05T03:20:37.910Z,21.13
2022-08-05T03:21:49.624Z,21.13
2022-08-05T03:22:52.453Z,21.14
2022-08-05T03:23:55.559Z,21.14
2022-08-05T03:25:11.528Z,21.15
2022-08-05T03:26:31.450Z,21.19
2022-08-05T03:27:59.092Z,21.20
2022-08-05T03:28:56.896Z,21.20
2022-08-05T03:30:08.237Z,21.20
2022-08-05T03:31:25.858Z,21.20
2022-08-05T03:32:36.341Z,21.23
2022-08-05T03:33:52.662Z,21.26
2022-08-05T03:34:54.939Z,21.29
2022-08-05T03:35:59.385Z,21.31
2022-08-05T03:37:02.705Z,21.33
2022-08-05T03:38:04.339Z,21.36
2022-08-05T03:39:13.142Z,21.36
2022-08-05T03:40:31.373Z,21.38
2022-08-05T03:41:45.173Z,21.39
2022-08-05T03:42:52.399Z,21.40
2022-08-05T03:44:09.663Z,21.40
2022-08-05T03:45:22.792Z,21.42
2022-08-05T03:46:26.777Z,21.42
2022-08-05T03:47:35.215Z,21.41
2022-08-05T03:48:39.651Z,21.41
2022-08-05T03:49:51.268Z,21.42
2022-08-05T03:52:35.496Z,21.43
2022-08-05T03:52:50.352Z,21.44
2022-08-05T03:55:54.023Z,21.44
2022-08-05T03:56:01.608Z,21.46
2022-08-05T03:56:50.942Z,21.46
2022-08-05T03:57:55.749Z,21.46
2022-08-05T03:59:02.309Z,21.47
2022-08-05T04:00:08.027Z,21.45
2022-08-05T04:01:13.009Z,21.44
2022-08-05T04:02:17.554Z,21.43
2022-08-05T04:04:09.884Z,21.42
2022-08-05T04:05:09.620Z,21.42
2022-08-05T04:06:12.472Z,21.41
2022-08-05T04:07:15.628Z,21.40
2022-08-05T04:08:30.134Z,21.40
2022-08-05T04:09:39.006Z,21.39
2022-08-05T04:10:57.163Z,21.38
2022-08-05T04:11:59.760Z,21.37
2022-08-05T04:13:03.510Z,21.37
2022-08-05T04:14:07.062Z,21.37
2022-08-05T04:15:15.735Z,21.36
2022-08-05T04:16:24.922Z,21.37
2022-08-05T04:17:55.419Z,21.38
2022-08-05T04:18:53.908Z,21.37
2022-08-05T04:19:58.714Z,21.36
2022-08-05T04:21:01.473Z,21.35
2022-08-05T04:22:08.041Z,21.36
2022-08-05T04:23:16.077Z,21.35
2022-08-05T04:24:19.481Z,21.35
2022-08-05T04:25:57.999Z,21.32
2022-08-05T04:26:48.001Z,21.32
2022-08-05T04:27:58.111Z,21.29
2022-08-05T04:29:07.449Z,21.29
2022-08-05T04:30:10.213Z,21.28
2022-08-05T04:31:12.914Z,21.28
2022-08-05T04:32:14.488Z,21.30
2022-08-05T04:33:54.829Z,21.30
2022-08-05T04:34:46.581Z,21.33
2022-08-05T04:36:10.651Z,21.31
2022-08-05T04:37:10.904Z,21.34
2022-08-05T04:38:15.477Z,21.34
2022-08-05T04:39:17.434Z,21.36
2022-08-05T04:40:20.759Z,21.37
2022-08-05T04:41:22.323Z,21.37
2022-08-05T04:42:39.701Z,21.39
2022-08-05T04:43:48.236Z,21.40
2022-08-05T04:44:55.498Z,21.40
2022-08-05T04:45:57.655Z,21.41
2022-08-05T04:47:09.677Z,21.40
2022-08-05T04:48:27.672Z,21.40
2022-08-05T04:49:38.925Z,21.39
2022-08-05T04:51:02.736Z,21.41
2022-08-05T04:52:11.723Z,21.44
2022-08-05T04:53:16.776Z,21.44
2022-08-05T04:54:19.671Z,21.43
2022-08-05T04:56:05.044Z,21.44
2022-08-05T04:56:44.961Z,21.47
2022-08-05T04:57:48.007Z,21.46
2022-08-05T04:58:54.676Z,21.45
2022-08-05T04:59:57.474Z,21.45
2022-08-05T05:01:01.718Z,21.45
2022-08-05T05:02:07.035Z,21.47
2022-08-05T05:03:29.400Z,21.46
2022-08-05T05:04:47.857Z,21.47
2022-08-05T05:06:40.020Z,21.47
2022-08-05T05:07:17.159Z,21.45
2022-08-05T05:08:30.226Z,21.44
2022-08-05T05:09:33.447Z,21.45
2022-08-05T05:10:42.071Z,21.46
2022-08-05T05:12:02.906Z,21.48
2022-08-05T05:13:04.820Z,21.49
2022-08-05T05:14:08.594Z,21.49
2022-08-05T05:15:11.099Z,21.50
2022-08-05T05:16:13.700Z,21.51
2022-08-05T05:17:22.791Z,21.49
2022-08-05T05:18:33.193Z,21.46
2022-08-05T05:19:36.839Z,21.44
2022-08-05T05:20:47.337Z,21.43
2022-08-05T05:21:55.665Z,21.43
2022-08-05T05:23:00.733Z,21.44
2022-08-05T05:24:10.860Z,21.46
2022-08-05T05:25:16.586Z,21.47
2022-08-05T05:26:28.637Z,21.47
2022-08-05T05:27:45.220Z,21.46
2022-08-05T05:28:47.891Z,21.46
2022-08-05T05:30:05.037Z,21.47
2022-08-05T05:31:08.846Z,21.50
2022-08-05T05:32:12.589Z,21.53
2022-08-05T05:33:23.439Z,21.52
2022-08-05T05:34:26.703Z,21.52
2022-08-05T05:35:34.289Z,21.52
2022-08-05T05:36:40.763Z,21.54
2022-08-05T05:38:00.305Z,21.55
2022-08-05T05:39:04.659Z,21.56
2022-08-05T05:40:14.826Z,21.55
2022-08-05T05:41:17.560Z,21.55
2022-08-05T05:42:20.873Z,21.56
2022-08-05T05:43:56.872Z,21.57
2022-08-05T05:44:46.805Z,21.58
2022-08-05T05:45:49.391Z,21.60
2022-08-05T05:46:51.160Z,21.61
2022-08-05T05:48:06.679Z,21.62
2022-08-05T05:49:22.309Z,21.64
2022-08-05T05:50:26.711Z,21.66
2022-08-05T05:51:29.011Z,21.65
2022-08-05T05:52:52.983Z,21.64
2022-08-05T05:53:58.598Z,21.64
2022-08-05T05:55:02.265Z,21.63
2022-08-05T05:56:09.519Z,21.64
2022-08-05T05:57:13.584Z,21.63
2022-08-05T05:58:21.532Z,21.62
2022-08-05T05:59:33.197Z,21.60
2022-08-05T06:00:45.916Z,21.60
2022-08-05T06:01:57.487Z,21.59
2022-08-05T06:03:02.180Z,21.58
2022-08-05T06:04:04.096Z,21.58
2022-08-05T06:05:10.485Z,21.59
2022-08-05T06:06:18.088Z,21.57
2022-08-05T06:07:22.507Z,21.55
2022-08-05T06:08:44.523Z,21.53
2022-08-05T06:10:01.368Z,21.52
2022-08-05T06:11:07.498Z,21.49
2022-08-05T06:12:09.591Z,21.49
2022-08-05T06:13:14.562Z,21.48
2022-08-05T06:14:17.166Z,21.49
2022-08-05T06:15:23.982Z,21.49
2022-08-05T06:16:29.202Z,21.49
2022-08-05T06:17:53.075Z,21.47
2022-08-05T06:18:57.072Z,21.44
2022-08-05T06:20:02.975Z,21.41
2022-08-05T06:21:04.887Z,21.39
2022-08-05T06:22:10.785Z,21.36
2022-08-05T06:23:12.459Z,21.33
2022-08-05T06:24:16.339Z,21.32
2022-08-05T06:25:59.804Z,21.32
2022-08-05T06:26:51.643Z,21.30
2022-08-05T06:28:12.790Z,21.30
2022-08-05T06:29:42.965Z,21.26
2022-08-05T06:30:39.356Z,21.26
2022-08-05T06:31:42.979Z,21.26
2022-08-05T06:32:48.177Z,21.24
2022-08-05T06:34:06.956Z,21.20
2022-08-05T06:35:15.403Z,21.14
2022-08-05T06:36:25.933Z,21.06
2022-08-05T06:37:57.394Z,20.98
2022-08-05T06:38:53.588Z,20.93
2022-08-05T06:39:57.158Z,20.91
2022-08-05T06:40:59.906Z,20.89
2022-08-05T06:42:04.133Z,20.88
2022-08-05T06:43:07.079Z,20.87
2022-08-05T06:44:30.336Z,20.85
2022-08-05T06:46:02.882Z,20.84
2022-08-05T06:46:56.199Z,20.84
2022-08-05T06:48:36.216Z,20.83
2022-08-05T06:49:21.465Z,20.84
2022-08-05T06:50:42.053Z,20.83
2022-08-05T06:51:44.716Z,20.85
2022-08-05T06:52:58.656Z,20.84
2022-08-05T06:54:05.809Z,20.84
2022-08-05T06:55:11.909Z,20.85
2022-08-05T06:56:26.625Z,20.83
2022-08-05T06:57:57.385Z,20.83
2022-08-05T06:58:52.771Z,20.85
2022-08-05T06:59:58.316Z,20.87
2022-08-05T07:01:01.227Z,20.90
2022-08-05T07:02:02.997Z,20.90
2022-08-05T07:03:09.746Z,20.92
2022-08-05T07:04:13.923Z,20.94
2022-08-05T07:05:18.841Z,20.96
2022-08-05T07:06:23.218Z,20.97
2022-08-05T07:07:43.350Z,20.98
2022-08-05T07:08:47.458Z,21.00
2022-08-05T07:09:55.489Z,21.00
2022-08-05T07:11:02.371Z,21.03
2022-08-05T07:12:04.372Z,21.08
2022-08-05T07:13:54.288Z,21.14
2022-08-05T07:15:07.048Z,21.24
2022-08-05T07:17:56.611Z,21.26
2022-08-05T07:18:00.227Z,21.28
2022-08-05T07:19:09.833Z,21.26
2022-08-05T07:22:00.733Z,21.28
2022-08-05T07:22:56.614Z,21.28
2022-08-05T07:23:58.352Z,21.27
2022-08-05T07:25:23.027Z,21.28
2022-08-05T07:26:28.569Z,21.32
2022-08-05T07:27:58.317Z,21.34
2022-08-05T07:28:52.902Z,21.35
2022-08-05T07:30:25.348Z,21.38
2022-08-05T07:31:20.346Z,21.38
2022-08-05T07:32:43.160Z,21.38
2022-08-05T07:33:46.527Z,21.37
2022-08-05T07:34:49.025Z,21.36
2022-08-05T07:36:05.634Z,21.35
2022-08-05T07:37:23.313Z,21.34
2022-08-05T07:38:33.580Z,21.34
2022-08-05T07:40:25.821Z,21.30
2022-08-05T07:41:02.904Z,21.30
2022-08-05T07:42:31.804Z,21.27
2022-08-05T07:43:35.771Z,21.26
2022-08-05T07:44:39.747Z,21.24
2022-08-05T07:45:57.575Z,21.25
2022-08-05T07:47:01.238Z,21.22
2022-08-05T07:48:09.825Z,21.21
2022-08-05T07:49:13.643Z,21.19
2022-08-05T07:50:16.526Z,21.19
2022-08-05T07:51:23.629Z,21.18
2022-08-05T07:52:39.795Z,21.18
2022-08-05T07:53:50.455Z,21.18
2022-08-05T07:54:54.423Z,21.19
2022-08-05T07:56:06.539Z,21.21
2022-08-05T07:57:41.951Z,21.25
2022-08-05T07:58:58.667Z,21.30
2022-08-05T08:00:01.733Z,21.30
2022-08-05T08:01:13.122Z,21.32
2022-08-05T08:02:18.400Z,21.32
2022-08-05T08:03:21.577Z,21.32
2022-08-05T08:04:37.355Z,21.36
2022-08-05T08:05:47.265Z,21.36
2022-08-05T08:06:52.395Z,21.32
2022-08-05T08:07:59.591Z,21.32
2022-08-05T08:09:02.101Z,21.29
2022-08-05T08:10:06.224Z,21.27
2022-08-05T08:11:09.581Z,21.28
2022-08-05T08:12:37.350Z,21.27
2022-08-05T08:13:42.689Z,21.22
2022-08-05T08:14:51.449Z,21.15
2022-08-05T08:16:35.232Z,21.12
2022-08-05T08:17:16.466Z,21.12
2022-08-05T08:18:20.927Z,21.10
2022-08-05T08:20:23.440Z,21.10
2022-08-05T08:21:02.504Z,21.13
2022-08-05T08:22:05.786Z,21.16
2022-08-05T08:24:01.652Z,21.18
2022-08-05T08:24:41.502Z,21.20
2022-08-05T08:26:00.108Z,21.25
2022-08-05T08:27:07.134Z,21.29
2022-08-05T08:28:18.532Z,21.30
2022-08-05T08:30:04.309Z,21.35
2022-08-05T08:30:48.064Z,21.37
2022-08-05T08:31:53.042Z,21.37
2022-08-05T08:32:54.689Z,21.40
2022-08-05T08:33:57.355Z,21.38
2022-08-05T08:34:59.515Z,21.36
2022-08-05T08:36:29.409Z,21.33
2022-08-05T08:37:27.835Z,21.35
2022-08-05T08:38:35.454Z,21.36
2022-08-05T08:39:38.237Z,21.40
2022-08-05T08:40:52.334Z,21.43
2022-08-05T08:42:00.208Z,21.43
2022-08-05T08:45:19.551Z,21.40
2022-08-05T08:45:25.092Z,21.36
2022-08-05T08:45:55.101Z,21.31
2022-08-05T08:46:57.448Z,21.30
2022-08-05T08:48:12.805Z,21.34
2022-08-05T08:50:23.269Z,21.38
2022-08-05T08:51:04.010Z,21.47
2022-08-05T08:52:14.364Z,21.55
2022-08-05T08:53:17.983Z,21.55
2022-08-05T08:54:21.061Z,21.56
2022-08-05T08:55:32.017Z,21.57
2022-08-05T08:56:52.194Z,21.57
2022-08-05T08:58:00.886Z,21.59
2022-08-05T08:59:08.357Z,21.60
2022-08-05T09:00:19.435Z,21.60
2022-08-05T09:01:22.402Z,21.58
2022-08-05T09:02:26.841Z,21.56
2022-08-05T09:03:40.710Z,21.58
2022-08-05T09:05:16.459Z,21.60
2022-08-05T09:06:11.555Z,21.64
2022-08-05T09:07:19.649Z,21.65
2022-08-05T09:08:31.006Z,21.66
2022-08-05T09:09:35.656Z,21.68
2022-08-05T09:10:40.904Z,21.68
2022-08-05T09:11:51.176Z,21.62
2022-08-05T09:13:04.543Z,21.59
2022-08-05T09:14:54.024Z,21.59
2022-08-05T09:15:30.998Z,21.55
2022-08-05T09:16:33.236Z,21.53
2022-08-05T09:17:40.793Z,21.53
2022-08-05T09:18:44.916Z,21.53
2022-08-05T09:19:55.230Z,21.50
2022-08-05T09:21:11.680Z,21.48
2022-08-05T09:22:31.725Z,21.48
2022-08-05T09:23:43.437Z,21.50
2022-08-05T09:24:58.069Z,21.54
2022-08-05T09:26:09.246Z,21.55
2022-08-05T09:28:04.170Z,21.53
2022-08-05T09:28:55.351Z,21.52
2022-08-05T09:30:04.620Z,21.50
2022-08-05T09:31:44.159Z,21.52
2022-08-05T09:32:40.694Z,21.52
2022-08-05T09:33:50.910Z,21.51
2022-08-05T09:34:54.967Z,21.51
2022-08-05T09:35:59.221Z,21.50
2022-08-05T09:37:01.868Z,21.51
2022-08-05T09:38:12.631Z,21.53
2022-08-05T09:39:22.473Z,21.57
2022-08-05T09:40:32.428Z,21.60
2022-08-05T09:41:39.125Z,21.59
2022-08-05T09:42:44.071Z,21.61
2022-08-05T09:43:51.177Z,21.62
2022-08-05T09:44:56.805Z,21.61
2022-08-05T09:46:06.007Z,21.59
2022-08-05T09:47:15.650Z,21.60
2022-08-05T09:48:29.221Z,21.61
2022-08-05T09:49:54.742Z,21.64
2022-08-05T09:50:56.679Z,21.67
2022-08-05T09:51:58.263Z,21.69
2022-08-05T09:53:01.620Z,21.72
2022-08-05T09:54:08.339Z,21.73
2022-08-05T09:55:57.872Z,21.76
2022-08-05T09:56:37.890Z,21.81
2022-08-05T09:57:43.416Z,21.85
2022-08-05T09:58:57.504Z,21.87
2022-08-05T10:00:05.971Z,21.90
2022-08-05T10:01:31.430Z,21.94
2022-08-05T10:02:38.980Z,22.00
2022-08-05T10:03:58.630Z,22.06
2022-08-05T10:05:08.287Z,22.12
2022-08-05T10:06:15.596Z,22.21
2022-08-05T10:07:20.366Z,22.27
2022-08-05T10:08:42.513Z,22.31
2022-08-05T10:10:15.197Z,22.35
2022-08-05T10:11:18.563Z,22.41
2022-08-05T10:12:33.255Z,22.49
2022-08-05T10:13:45.572Z,22.57
2022-08-05T10:14:50.891Z,22.64
2022-08-05T10:15:58.186Z,22.68
2022-08-05T10:17:37.692Z,22.70
2022-08-05T10:18:38.944Z,22.75
2022-08-05T10:20:04.534Z,22.78
2022-08-05T10:21:11.974Z,22.79
2022-08-05T10:22:29.678Z,22.81
2022-08-05T10:23:59.924Z,22.90
2022-08-05T10:24:56.332Z,23.00
2022-08-05T10:26:00.221Z,23.07
2022-08-05T10:27:01.895Z,23.09
2022-08-05T10:28:13.937Z,23.12
2022-08-05T10:29:24.052Z,23.11
2022-08-05T10:32:49.379Z,23.15
2022-08-05T10:32:54.989Z,23.20
2022-08-05T10:33:35.150Z,23.25
2022-08-05T10:34:44.819Z,23.34
2022-08-05T10:36:00.037Z,23.39
2022-08-05T10:37:03.370Z,23.44
2022-08-05T10:38:06.495Z,23.49
2022-08-05T10:39:20.401Z,23.49
2022-08-05T10:40:33.615Z,23.45
2022-08-05T10:41:45.314Z,23.45
2022-08-05T10:42:53.207Z,23.47
2022-08-05T10:44:02.355Z,23.49
2022-08-05T10:45:21.530Z,23.48
2022-08-05T10:46:45.388Z,23.47
2022-08-05T10:48:29.932Z,23.44
2022-08-05T10:49:16.457Z,23.39
2022-08-05T10:50:35.283Z,23.34
2022-08-05T10:51:59.926Z,23.29
2022-08-05T10:53:03.171Z,23.25
2022-08-05T10:54:23.105Z,23.25
2022-08-05T10:55:30.345Z,23.20
2022-08-05T10:56:44.851Z,23.16
2022-08-05T10:57:47.766Z,23.13
2022-08-05T10:59:12.172Z,23.10
2022-08-05T11:00:19.792Z,23.10
2022-08-05T11:01:55.470Z,23.08
2022-08-05T11:03:25.979Z,23.08
2022-08-05T11:04:30.725Z,23.04
2022-08-05T11:05:34.702Z,23.01
2022-08-05T11:07:06.782Z,23.00
2022-08-05T11:08:33.786Z,23.07
2022-08-05T11:09:45.553Z,23.16
2022-08-05T11:11:01.498Z,23.23
2022-08-05T11:12:45.377Z,23.26
2022-08-05T11:13:54.744Z,23.31
2022-08-05T11:15:19.733Z,23.30
2022-08-05T11:16:47.617Z,23.32
2022-08-05T11:17:59.346Z,23.30
2022-08-05T11:20:10.310Z,23.27
2022-08-05T11:20:51.943Z,23.24
2022-08-05T11:21:54.423Z,23.27
2022-08-05T11:23:05.930Z,23.34
2022-08-05T11:24:29.736Z,23.41
2022-08-05T11:26:04.711Z,23.50
2022-08-05T11:27:45.796Z,23.57
2022-08-05T11:28:55.733Z,23.67
2022-08-05T11:30:00.962Z,23.76
2022-08-05T11:31:54.381Z,23.84
2022-08-05T11:33:26.050Z,23.91
2022-08-05T11:34:51.125Z,23.94
2022-08-05T11:36:07.951Z,24.01
2022-08-05T11:38:29.692Z,24.07
2022-08-05T11:38:54.554Z,24.14
2022-08-05T11:40:03.411Z,24.12
2022-08-05T11:41:35.390Z,24.13
2022-08-05T11:42:29.729Z,24.17
2022-08-05T11:44:04.968Z,24.20
2022-08-05T11:45:02.223Z,24.20
2022-08-05T11:46:27.019Z,24.21
2022-08-05T11:47:49.283Z,24.22
2022-08-05T11:48:50.010Z,24.22
2022-08-05T11:49:58.469Z,24.22
2022-08-05T11:51:01.704Z,24.23
2022-08-05T11:52:11.372Z,24.21
2022-08-05T11:53:13.746Z,24.20
2022-08-05T11:54:33.194Z,24.20
2022-08-05T11:55:36.965Z,24.12
2022-08-05T11:56:50.301Z,24.06
2022-08-05T11:58:09.357Z,24.06
2022-08-05T11:59:16.131Z,24.02
2022-08-05T12:00:28.875Z,24.00
2022-08-05T12:01:31.791Z,24.00
2022-08-05T12:02:36.131Z,23.98
2022-08-05T12:03:43.629Z,23.97
2022-08-05T12:05:00.183Z,23.94
2022-08-05T12:06:06.046Z,23.99
2022-08-05T12:07:11.347Z,24.02
2022-08-05T12:08:18.120Z,24.08
2022-08-05T12:09:52.542Z,24.14
2022-08-05T12:10:50.361Z,24.18
2022-08-05T12:11:55.198Z,24.24
2022-08-05T12:13:03.778Z,24.29
2022-08-05T12:14:18.708Z,24.30
2022-08-05T12:15:38.021Z,24.30
2022-08-05T12:16:45.510Z,24.30
2022-08-05T12:18:09.887Z,24.31
2022-08-05T12:20:25.724Z,24.27
2022-08-05T12:20:38.436Z,24.22
2022-08-05T12:21:48.176Z,24.20
2022-08-05T12:22:51.876Z,24.20
2022-08-05T12:24:00.093Z,24.19
2022-08-05T12:25:06.866Z,24.18
2022-08-05T12:26:09.335Z,24.19
2022-08-05T12:27:21.688Z,24.21
2022-08-05T12:28:31.366Z,24.22
2022-08-05T12:29:38.695Z,24.24
2022-08-05T12:30:45.643Z,24.25
2022-08-05T12:31:53.435Z,24.25
2022-08-05T12:32:58.602Z,24.25
2022-08-05T12:34:20.654Z,24.26
2022-08-05T12:35:24.777Z,24.28
2022-08-05T12:36:42.595Z,24.34
2022-08-05T12:37:47.557Z,24.42
2022-08-05T12:38:51.433Z,24.52
2022-08-05T12:40:03.737Z,24.63
2022-08-05T12:41:16.172Z,24.69
2022-08-05T12:42:20.707Z,24.77
2022-08-05T12:43:22.460Z,24.73
2022-08-05T12:44:33.642Z,24.71
2022-08-05T12:45:48.196Z,24.70
2022-08-05T12:46:54.257Z,24.66
2022-08-05T12:48:01.543Z,24.63
2022-08-05T12:49:19.042Z,24.60
2022-08-05T12:50:23.823Z,24.61
2022-08-05T12:52:10.320Z,24.59
2022-08-05T12:53:00.399Z,24.63
2022-08-05T12:54:04.902Z,24.70
2022-08-05T12:55:25.053Z,24.78
2022-08-05T12:56:35.245Z,24.85
2022-08-05T12:58:39.045Z,24.88
2022-08-05T12:59:20.997Z,24.81
2022-08-05T13:02:00.419Z,24.76
2022-08-05T13:02:07.418Z,24.71
2022-08-05T13:03:12.172Z,24.71
2022-08-05T13:04:21.007Z,24.68
2022-08-05T13:05:23.605Z,24.65
2022-08-05T13:06:27.328Z,24.62
2022-08-05T13:07:57.306Z,24.57
2022-08-05T13:08:55.006Z,24.51
2022-08-05T13:09:59.852Z,24.45
2022-08-05T13:11:04.183Z,24.41
2022-08-05T13:12:08.688Z,24.36
2022-08-05T13:14:06.341Z,24.31
2022-08-05T13:14:43.921Z,24.23
2022-08-05T13:15:51.225Z,24.16
2022-08-05T13:16:56.558Z,24.10
2022-08-05T13:17:59.230Z,24.04
2022-08-05T13:19:02.658Z,24.00
2022-08-05T13:20:08.733Z,23.91
2022-08-05T13:21:10.392Z,23.71
2022-08-05T13:22:28.351Z,23.34
2022-08-05T13:23:32.605Z,22.73
2022-08-05T13:24:51.128Z,22.26
2022-08-05T13:26:01.857Z,21.84
2022-08-05T13:27:03.842Z,21.65
2022-08-05T13:28:07.833Z,21.46
2022-08-05T13:29:19.147Z,21.33
2022-08-05T13:30:38.889Z,21.27
2022-08-05T13:32:04.634Z,21.27
2022-08-05T13:33:05.623Z,21.33
2022-08-05T13:34:21.945Z,21.43
2022-08-05T13:35:31.487Z,21.57
2022-08-05T13:36:50.331Z,21.74
2022-08-05T13:37:55.515Z,21.89
2022-08-05T13:38:58.544Z,22.04
2022-08-05T13:40:20.104Z,22.20
2022-08-05T13:41:37.391Z,22.38
2022-08-05T13:42:40.390Z,22.56
2022-08-05T13:43:54.585Z,22.68
2022-08-05T13:44:58.994Z,22.81
2022-08-05T13:46:00.624Z,22.93
2022-08-05T13:47:08.346Z,23.03
2022-08-05T13:48:58.835Z,23.15
2022-08-05T13:49:35.445Z,23.26
2022-08-05T13:50:37.192Z,23.34
2022-08-05T13:51:46.077Z,23.42
2022-08-05T13:52:49.878Z,23.52
2022-08-05T13:53:52.707Z,23.59
2022-08-05T13:55:02.145Z,23.64
2022-08-05T13:56:18.844Z,23.69
2022-08-05T13:57:22.539Z,23.71
2022-08-05T13:58:31.023Z,23.75
2022-08-05T13:59:34.121Z,23.80
2022-08-05T14:00:37.368Z,23.84
2022-08-05T14:01:46.678Z,23.87
2022-08-05T14:03:01.019Z,23.89
2022-08-05T14:04:22.278Z,23.91
2022-08-05T14:05:48.304Z,23.95
2022-08-05T14:06:58.722Z,23.96
2022-08-05T14:08:20.222Z,24.00
2022-08-05T14:09:29.940Z,24.03
2022-08-05T14:10:33.333Z,24.08
2022-08-05T14:12:04.066Z,24.13
2022-08-05T14:13:02.754Z,24.15
2022-08-05T14:14:08.439Z,24.17
2022-08-05T14:16:05.783Z,24.18
2022-08-05T14:16:34.013Z,24.19
2022-08-05T14:17:36.179Z,24.20
2022-08-05T14:18:40.132Z,24.21
2022-08-05T14:19:56.083Z,24.20
2022-08-05T14:21:00.212Z,24.22
2022-08-05T14:22:22.894Z,24.24
2022-08-05T14:23:36.466Z,24.28
2022-08-05T14:24:42.107Z,24.32
2022-08-05T14:25:54.099Z,24.36
2022-08-05T14:27:17.259Z,24.43
2022-08-05T14:28:26.732Z,24.50
2022-08-05T14:29:31.342Z,24.55
2022-08-05T14:30:34.908Z,24.60
2022-08-05T14:32:03.295Z,24.66
2022-08-05T14:33:01.568Z,24.72
2022-08-05T14:34:03.232Z,24.78
2022-08-05T14:35:06.859Z,24.84
2022-08-05T14:36:13.482Z,24.89
2022-08-05T14:37:17.097Z,24.93
2022-08-05T14:38:32.243Z,24.93
2022-08-05T14:39:49.943Z,24.93
2022-08-05T14:40:59.623Z,24.92
2022-08-05T14:42:21.203Z,24.93
2022-08-05T14:44:02.195Z,24.95
2022-08-05T14:44:47.059Z,25.01
2022-08-05T14:45:48.663Z,25.07
2022-08-05T14:46:51.309Z,25.14
2022-08-05T14:48:04.175Z,25.19
2022-08-05T14:49:08.943Z,25.26
2022-08-05T14:50:17.794Z,25.27
2022-08-05T14:51:21.225Z,25.26
2022-08-05T14:52:50.418Z,25.25
2022-08-05T14:54:06.609Z,25.26
2022-08-05T14:55:15.433Z,25.26
2022-08-05T14:56:22.705Z,25.23
2022-08-05T14:57:53.970Z,25.22
2022-08-05T14:58:53.216Z,25.20
2022-08-05T14:59:54.979Z,25.20
2022-08-05T15:01:00.390Z,25.24
2022-08-05T15:02:15.155Z,25.29
2022-08-05T15:03:18.798Z,25.35
2022-08-05T15:04:24.631Z,25.40
2022-08-05T15:06:07.999Z,25.44
2022-08-05T15:06:54.248Z,25.42
2022-08-05T15:08:11.490Z,25.38
2022-08-05T15:09:52.286Z,25.31
2022-08-05T15:10:43.155Z,25.20
2022-08-05T15:11:52.767Z,25.14
2022-08-05T15:13:00.937Z,25.07
2022-08-05T15:14:05.966Z,25.03